Midas — OIZZ — position and weather

sailwx.info

Track history (hours):
 
Tides and Currents Weather Stations Pressure Air Temp Water Temp Dewpoint Dewpoint Depression Visibility Wind Speed Wind Dir Waves Ship Positions

Midas

Last reported at 2018-May-23 21:58 UTC. Time now 2018-May-23 22:22 UTC.
Position N 17°09' W 062°44'.

Length 108 m; draft 5.2 m.

Type: Cargo ship. MMSI: 230186000.

Date/timePositionNaut miles runAvg speedWind from/ knotsBaromVisibWave heightAir tempDewpointWater temp
2018-May-23 21:58N 17°09' W 062°44'19 7.3
2018-May-23 19:23N 17°25' W 062°54'5 8.9
2018-May-23 18:48N 17°30' W 062°54'7 9.3
2018-May-23 18:01N 17°37' W 062°54'1 9.7
2018-May-23 17:57N 17°38' W 062°54'5 8.2
2018-May-23 17:20N 17°43' W 062°54'4 7.5
2018-May-23 16:47N 17°47' W 062°54'2 7.3
2018-May-23 16:28N 17°49' W 062°54'5 1.4
2018-May-23 12:47N 17°55' W 062°53'2 8.8
2018-May-23 12:30N 17°55' W 062°55'6 8.0
2018-May-23 11:49N 17°58' W 063°00'3 7.5
2018-May-23 11:27N 17°60' W 063°02'1 0.8
2018-May-23 10:31N 18°01' W 063°03'0 0.0
2018-May-23 10:01N 18°01' W 063°03'0 0.0
2018-May-23 09:43N 18°01' W 063°03'0 0.0
2018-May-23 09:13N 18°01' W 063°03'0 0.0
2018-May-23 08:58N 18°01' W 063°03'0 0.0
2018-May-23 08:13N 18°01' W 063°03'0 0.0
2018-May-23 07:31N 18°01' W 063°03'0 0.0
2018-May-23 07:16N 18°01' W 063°03'0 0.0
2018-May-23 06:51N 18°01' W 063°03'1 2.0
2018-May-23 06:30N 18°00' W 063°03'610.7
2018-May-23 05:57N 18°01' W 063°09'511.6
2018-May-23 05:30N 18°03' W 063°15'611.9
2018-May-23 05:00N 18°04' W 063°21'612.5
2018-May-23 04:30N 18°05' W 063°27'712.7
2018-May-23 03:59N 18°07' W 063°34'612.2
2018-May-23 03:29N 18°08' W 063°40'  
2018-May-20 01:55N 18°05' W 063°25'3 8.0
2018-May-20 01:30N 18°05' W 063°22'4 7.8
2018-May-20 01:00N 18°04' W 063°18'4 7.4
2018-May-20 00:30N 18°03' W 063°14'4 8.2
2018-May-20 00:00N 18°02' W 063°10'4 8.1
2018-May-19 23:29N 18°01' W 063°06'3 5.5
2018-May-19 22:56N 18°01' W 063°03'0 0.0
2018-May-19 22:07N 18°01' W 063°03'0 0.0
2018-May-19 21:37N 18°01' W 063°03'0 0.0
2018-May-19 15:19N 18°01' W 063°03'6 9.2
2018-May-19 14:43N 17°57' W 062°58'311.8
2018-May-19 14:27N 17°55' W 062°56'1 0.3
2018-May-19 10:29N 17°55' W 062°55'612.3
2018-May-19 10:00N 17°58' W 062°60'4 6.5
2018-May-19 09:26N 18°01' W 063°03'0 0.0
2018-May-19 08:56N 18°01' W 063°03'0 0.0
2018-May-19 08:29N 18°01' W 063°03'0 0.0
2018-May-19 07:59N 18°01' W 063°03'0 0.0
2018-May-19 07:29N 18°01' W 063°03'0 0.0
2018-May-19 06:59N 18°01' W 063°03'0 0.0
2018-May-19 06:29N 18°01' W 063°03'0 0.0
2018-May-19 05:59N 18°01' W 063°03'0 0.0
2018-May-19 05:29N 18°01' W 063°03'0 0.0
2018-May-19 04:59N 18°01' W 063°03'0 0.0
2018-May-19 04:11N 18°01' W 063°03'0 0.0
2018-May-19 03:59N 18°01' W 063°03'0 0.0
2018-May-19 03:29N 18°01' W 063°03'0 0.0
2018-May-19 02:59N 18°01' W 063°03'0 0.0
2018-May-18 23:29N 18°01' W 063°03'0 0.0
2018-May-18 22:59N 18°01' W 063°03'0 0.0
2018-May-18 22:28N 18°01' W 063°03'0 0.0
2018-May-18 21:58N 18°01' W 063°03'0 0.0
2018-May-18 21:28N 18°01' W 063°03'0 0.0
2018-May-18 20:50N 18°01' W 063°03'0 0.0
2018-May-18 20:16N 18°01' W 063°03'0 0.0
2018-May-18 19:46N 18°01' W 063°03'0 0.0
2018-May-18 19:04N 18°01' W 063°03'0 0.0
2018-May-18 18:52N 18°01' W 063°03'0 0.0
2018-May-18 18:22N 18°01' W 063°03'0 0.0
2018-May-18 17:52N 18°01' W 063°03'0 0.0
2018-May-18 17:23N 18°01' W 063°03'0 0.0
2018-May-18 16:52N 18°01' W 063°03'0 0.0
2018-May-18 16:22N 18°01' W 063°03'0 0.0
2018-May-18 15:52N 18°01' W 063°03'0 0.0
2018-May-18 15:22N 18°01' W 063°03'0 0.0
2018-May-18 15:00N 18°01' W 063°03'7 9.7
2018-May-18 14:17N 17°55' W 062°59'6 9.3
2018-May-18 13:38N 17°50' W 062°55'1 9.2
2018-May-18 13:30N 17°49' W 062°55'910.4
2018-May-18 12:38N 17°39' W 062°55'110.7
2018-May-18 12:30N 17°38' W 062°55'610.7
2018-May-18 11:58N 17°32' W 062°55'610.2
2018-May-18 11:23N 17°26' W 062°54'19 9.9
2018-May-18 09:29N 17°10' W 062°45'5 9.8
2018-May-18 09:00N 17°06' W 062°42'5 9.9
2018-May-18 08:30N 17°02' W 062°39'5 9.9
2018-May-18 07:59N 16°58' W 062°36'4 0.1
2018-May-16 22:35N 16°55' W 062°33'1 9.1
2018-May-16 22:29N 16°55' W 062°34'4 9.2
2018-May-16 22:00N 16°59' W 062°37'4 8.7
2018-May-16 21:30N 17°02' W 062°39'4 8.6
2018-May-16 20:59N 17°06' W 062°42'4 9.0
2018-May-16 20:30N 17°09' W 062°45'18 9.1
2018-May-16 18:29N 17°26' W 062°54'510.2
2018-May-16 18:00N 17°31' W 062°53'9 8.8
2018-May-16 16:59N 17°39' W 062°53'4 9.2
2018-May-16 16:30N 17°44' W 062°53'11 1.8
2018-May-16 10:21N 17°55' W 062°53'411.0
2018-May-16 10:00N 17°56' W 062°57'610.3
2018-May-16 09:26N 17°60' W 063°02'1 2.6
2018-May-16 08:59N 18°01' W 063°03'0 0.0
2018-May-16 08:30N 18°01' W 063°03'0 0.0
2018-May-16 07:41N 18°01' W 063°03'0 0.0
2018-May-16 07:30N 18°01' W 063°03'0 0.0
2018-May-16 06:59N 18°01' W 063°03'0 0.0
2018-May-16 06:29N 18°01' W 063°03'0 0.0
2018-May-16 05:59N 18°01' W 063°03'0 0.0
2018-May-16 04:17N 18°01' W 063°03'0 0.0
2018-May-16 03:47N 18°01' W 063°03'0 0.0
2018-May-16 03:29N 18°01' W 063°03'0 0.0
2018-May-16 02:59N 18°01' W 063°03'0 0.0
2018-May-16 01:59N 18°01' W 063°03'0 0.0
2018-May-15 23:51N 18°01' W 063°03'0 0.0
2018-May-15 23:30N 18°01' W 063°03'4 7.2
2018-May-15 22:53N 17°59' W 063°07'512.8
2018-May-15 22:28N 17°58' W 063°13'612.6
2018-May-15 21:59N 17°57' W 063°19'712.6
2018-May-15 21:26N 17°55' W 063°26'812.5
2018-May-15 20:50N 17°54' W 063°34'412.6
2018-May-15 20:30N 17°53' W 063°38'  
Track history (hours):
 
Tides and Currents Weather Stations Pressure Air Temp Water Temp Dewpoint Dewpoint Depression Visibility Wind Speed Wind Dir Waves Ship Positions

Midas

Last reported at 2018-May-23 21:58 UTC. Time now 2018-May-23 22:22 UTC.
Position N 17°09' W 062°44'.

Length 108 m; draft 5.2 m.

Type: Cargo ship. MMSI: 230186000.

Date/timePositionNaut miles runAvg speedWind from/ knotsBaromVisibWave heightAir tempDewpointWater temp
2018-May-23 21:58N 17°09' W 062°44'19 7.3
2018-May-23 19:23N 17°25' W 062°54'5 8.9
2018-May-23 18:48N 17°30' W 062°54'7 9.3
2018-May-23 18:01N 17°37' W 062°54'1 9.7
2018-May-23 17:57N 17°38' W 062°54'5 8.2
2018-May-23 17:20N 17°43' W 062°54'4 7.5
2018-May-23 16:47N 17°47' W 062°54'2 7.3
2018-May-23 16:28N 17°49' W 062°54'5 1.4
2018-May-23 12:47N 17°55' W 062°53'2 8.8
2018-May-23 12:30N 17°55' W 062°55'6 8.0
2018-May-23 11:49N 17°58' W 063°00'3 7.5
2018-May-23 11:27N 17°60' W 063°02'1 0.8
2018-May-23 10:31N 18°01' W 063°03'0 0.0
2018-May-23 10:01N 18°01' W 063°03'0 0.0
2018-May-23 09:43N 18°01' W 063°03'0 0.0
2018-May-23 09:13N 18°01' W 063°03'0 0.0
2018-May-23 08:58N 18°01' W 063°03'0 0.0
2018-May-23 08:13N 18°01' W 063°03'0 0.0
2018-May-23 07:31N 18°01' W 063°03'0 0.0
2018-May-23 07:16N 18°01' W 063°03'0 0.0
2018-May-23 06:51N 18°01' W 063°03'1 2.0
2018-May-23 06:30N 18°00' W 063°03'610.7
2018-May-23 05:57N 18°01' W 063°09'511.6
2018-May-23 05:30N 18°03' W 063°15'611.9
2018-May-23 05:00N 18°04' W 063°21'612.5
2018-May-23 04:30N 18°05' W 063°27'712.7
2018-May-23 03:59N 18°07' W 063°34'612.2
2018-May-23 03:29N 18°08' W 063°40'  
2018-May-20 01:55N 18°05' W 063°25'3 8.0
2018-May-20 01:30N 18°05' W 063°22'4 7.8
2018-May-20 01:00N 18°04' W 063°18'4 7.4
2018-May-20 00:30N 18°03' W 063°14'4 8.2
2018-May-20 00:00N 18°02' W 063°10'4 8.1
2018-May-19 23:29N 18°01' W 063°06'3 5.5
2018-May-19 22:56N 18°01' W 063°03'0 0.0
2018-May-19 22:07N 18°01' W 063°03'0 0.0
2018-May-19 21:37N 18°01' W 063°03'0 0.0
2018-May-19 15:19N 18°01' W 063°03'6 9.2
2018-May-19 14:43N 17°57' W 062°58'311.8
2018-May-19 14:27N 17°55' W 062°56'1 0.3
2018-May-19 10:29N 17°55' W 062°55'612.3
2018-May-19 10:00N 17°58' W 062°60'4 6.5
2018-May-19 09:26N 18°01' W 063°03'0 0.0
2018-May-19 08:56N 18°01' W 063°03'0 0.0
2018-May-19 08:29N 18°01' W 063°03'0 0.0
2018-May-19 07:59N 18°01' W 063°03'0 0.0
2018-May-19 07:29N 18°01' W 063°03'0 0.0
2018-May-19 06:59N 18°01' W 063°03'0 0.0
2018-May-19 06:29N 18°01' W 063°03'0 0.0
2018-May-19 05:59N 18°01' W 063°03'0 0.0
2018-May-19 05:29N 18°01' W 063°03'0 0.0
2018-May-19 04:59N 18°01' W 063°03'0 0.0
2018-May-19 04:11N 18°01' W 063°03'0 0.0
2018-May-19 03:59N 18°01' W 063°03'0 0.0
2018-May-19 03:29N 18°01' W 063°03'0 0.0
2018-May-19 02:59N 18°01' W 063°03'0 0.0
2018-May-18 23:29N 18°01' W 063°03'0 0.0
2018-May-18 22:59N 18°01' W 063°03'0 0.0
2018-May-18 22:28N 18°01' W 063°03'0 0.0
2018-May-18 21:58N 18°01' W 063°03'0 0.0
2018-May-18 21:28N 18°01' W 063°03'0 0.0
2018-May-18 20:50N 18°01' W 063°03'0 0.0
2018-May-18 20:16N 18°01' W 063°03'0 0.0
2018-May-18 19:46N 18°01' W 063°03'0 0.0
2018-May-18 19:04N 18°01' W 063°03'0 0.0
2018-May-18 18:52N 18°01' W 063°03'0 0.0
2018-May-18 18:22N 18°01' W 063°03'0 0.0
2018-May-18 17:52N 18°01' W 063°03'0 0.0
2018-May-18 17:23N 18°01' W 063°03'0 0.0
2018-May-18 16:52N 18°01' W 063°03'0 0.0
2018-May-18 16:22N 18°01' W 063°03'0 0.0
2018-May-18 15:52N 18°01' W 063°03'0 0.0
2018-May-18 15:22N 18°01' W 063°03'0 0.0
2018-May-18 15:00N 18°01' W 063°03'7 9.7
2018-May-18 14:17N 17°55' W 062°59'6 9.3
2018-May-18 13:38N 17°50' W 062°55'1 9.2
2018-May-18 13:30N 17°49' W 062°55'910.4
2018-May-18 12:38N 17°39' W 062°55'110.7
2018-May-18 12:30N 17°38' W 062°55'610.7
2018-May-18 11:58N 17°32' W 062°55'610.2
2018-May-18 11:23N 17°26' W 062°54'19 9.9
2018-May-18 09:29N 17°10' W 062°45'5 9.8
2018-May-18 09:00N 17°06' W 062°42'5 9.9
2018-May-18 08:30N 17°02' W 062°39'5 9.9
2018-May-18 07:59N 16°58' W 062°36'4 0.1
2018-May-16 22:35N 16°55' W 062°33'1 9.1
2018-May-16 22:29N 16°55' W 062°34'4 9.2
2018-May-16 22:00N 16°59' W 062°37'4 8.7
2018-May-16 21:30N 17°02' W 062°39'4 8.6
2018-May-16 20:59N 17°06' W 062°42'4 9.0
2018-May-16 20:30N 17°09' W 062°45'18 9.1
2018-May-16 18:29N 17°26' W 062°54'510.2
2018-May-16 18:00N 17°31' W 062°53'9 8.8
2018-May-16 16:59N 17°39' W 062°53'4 9.2
2018-May-16 16:30N 17°44' W 062°53'11 1.8
2018-May-16 10:21N 17°55' W 062°53'411.0
2018-May-16 10:00N 17°56' W 062°57'610.3
2018-May-16 09:26N 17°60' W 063°02'1 2.6
2018-May-16 08:59N 18°01' W 063°03'0 0.0
2018-May-16 08:30N 18°01' W 063°03'0 0.0
2018-May-16 07:41N 18°01' W 063°03'0 0.0
2018-May-16 07:30N 18°01' W 063°03'0 0.0
2018-May-16 06:59N 18°01' W 063°03'0 0.0
2018-May-16 06:29N 18°01' W 063°03'0 0.0
2018-May-16 05:59N 18°01' W 063°03'0 0.0
2018-May-16 04:17N 18°01' W 063°03'0 0.0
2018-May-16 03:47N 18°01' W 063°03'0 0.0
2018-May-16 03:29N 18°01' W 063°03'0 0.0
2018-May-16 02:59N 18°01' W 063°03'0 0.0
2018-May-16 01:59N 18°01' W 063°03'0 0.0
2018-May-15 23:51N 18°01' W 063°03'0 0.0
2018-May-15 23:30N 18°01' W 063°03'4 7.2
2018-May-15 22:53N 17°59' W 063°07'512.8
2018-May-15 22:28N 17°58' W 063°13'612.6
2018-May-15 21:59N 17°57' W 063°19'712.6
2018-May-15 21:26N 17°55' W 063°26'812.5
2018-May-15 20:50N 17°54' W 063°34'412.6
2018-May-15 20:30N 17°53' W 063°38'  

Dump ship's entire track history